OYKBT ESGG-ESMS
Flight info
| Callsign | OYKBT |
|---|---|
| Flight time | 1h 20m |
| Altitude | 1500 |
| Route | DCT 5740N01205E 5644N01239E 5636N01255E 5625N01257E DCT 5808N01311E DCT OEM DCT 5530N01331E DCT |
| Aircraft | A319/M-SDE3FGIJ1RWXY/LB1 |
Departure
| Time | 2026-04-26 17:13 |
|---|---|
| Airport | Göteborg Landvetter Airport (ESGG) |
Arrival
| Time | 2026-04-26 18:33 |
|---|---|
| Airport | Malmö Sturup Airport (ESMS) |
| Time | Latitude | Longitude | Altitude | Speed | Heading |
|---|---|---|---|---|---|
| 2026-04-26 16:48 | 57.66385 | 12.29009 | 516 ft | 0 kts | 116° |
| 2026-04-26 16:58 | 57.66386 | 12.29006 | 516 ft | 2 kts | 116° |
| 2026-04-26 16:59 | 57.66397 | 12.28964 | 516 ft | 4 kts | 121° |
| 2026-04-26 16:59 | 57.66431 | 12.28912 | 516 ft | 2 kts | 206° |
| 2026-04-26 17:00 | 57.66432 | 12.28913 | 516 ft | 0 kts | 206° |
| 2026-04-26 17:00 | 57.66437 | 12.28953 | 516 ft | 0 kts | 342° |
| 2026-04-26 17:07 | 57.66453 | 12.28947 | 516 ft | 6 kts | 355° |
| 2026-04-26 17:07 | 57.66531 | 12.28963 | 516 ft | 15 kts | 349° |
| 2026-04-26 17:08 | 57.66614 | 12.28946 | 516 ft | 13 kts | 303° |
| 2026-04-26 17:08 | 57.66695 | 12.28869 | 516 ft | 18 kts | 24° |
| 2026-04-26 17:08 | 57.66825 | 12.28986 | 516 ft | 23 kts | 26° |
| 2026-04-26 17:08 | 57.66989 | 12.29135 | 516 ft | 29 kts | 26° |
| 2026-04-26 17:09 | 57.67158 | 12.29287 | 516 ft | 25 kts | 25° |
| 2026-04-26 17:09 | 57.67261 | 12.29380 | 516 ft | 22 kts | 27° |
| 2026-04-26 17:09 | 57.67445 | 12.29554 | 516 ft | 22 kts | 26° |
| 2026-04-26 17:09 | 57.67545 | 12.29577 | 516 ft | 13 kts | 321° |
| 2026-04-26 17:10 | 57.67582 | 12.29448 | 516 ft | 11 kts | 295° |
| 2026-04-26 17:10 | 57.67591 | 12.29382 | 516 ft | 0 kts | 271° |
| 2026-04-26 17:11 | 57.67591 | 12.29367 | 516 ft | 5 kts | 271° |
| 2026-04-26 17:11 | 57.67587 | 12.29246 | 516 ft | 8 kts | 262° |
| 2026-04-26 17:11 | 57.67570 | 12.29151 | 516 ft | 6 kts | 214° |
| 2026-04-26 17:11 | 57.67563 | 12.29144 | 516 ft | 0 kts | 208° |
| 2026-04-26 17:12 | 57.67229 | 12.28840 | 515 ft | 91 kts | 206° |
| 2026-04-26 17:12 | 57.66438 | 12.28098 | 588 ft | 154 kts | 211° |
| 2026-04-26 17:13 | 57.64377 | 12.26061 | 1995 ft | 185 kts | 217° |
| 2026-04-26 17:13 | 57.63613 | 12.24253 | 2015 ft | 174 kts | 257° |
| 2026-04-26 17:13 | 57.64332 | 12.20214 | 2045 ft | 170 kts | 297° |
| 2026-04-26 17:14 | 57.64878 | 12.18258 | 1983 ft | 170 kts | 297° |
| 2026-04-26 17:14 | 57.66149 | 12.14572 | 1866 ft | 161 kts | 304° |
| 2026-04-26 17:14 | 57.66776 | 12.12905 | 1871 ft | 156 kts | 304° |
| 2026-04-26 17:15 | 57.68045 | 12.09573 | 1761 ft | 157 kts | 302° |
| 2026-04-26 17:15 | 57.68627 | 12.07854 | 1657 ft | 156 kts | 300° |
| 2026-04-26 17:15 | 57.69174 | 12.06108 | 1581 ft | 156 kts | 297° |
| 2026-04-26 17:16 | 57.69661 | 12.04298 | 1513 ft | 156 kts | 295° |
| 2026-04-26 17:16 | 57.70140 | 12.02473 | 1515 ft | 156 kts | 295° |
| 2026-04-26 17:16 | 57.70619 | 12.00648 | 1510 ft | 156 kts | 295° |
| 2026-04-26 17:16 | 57.71034 | 11.98783 | 1571 ft | 156 kts | 282° |
| 2026-04-26 17:17 | 57.70956 | 11.96770 | 1661 ft | 159 kts | 251° |
| 2026-04-26 17:17 | 57.70292 | 11.95120 | 1804 ft | 164 kts | 219° |
| 2026-04-26 17:17 | 57.69241 | 11.94232 | 1898 ft | 167 kts | 202° |
| 2026-04-26 17:17 | 57.68130 | 11.93567 | 1994 ft | 168 kts | 200° |
| 2026-04-26 17:18 | 57.66994 | 11.92991 | 2009 ft | 174 kts | 195° |
| 2026-04-26 17:18 | 57.66187 | 11.92697 | 2014 ft | 182 kts | 193° |
| 2026-04-26 17:18 | 57.64931 | 11.92295 | 2024 ft | 184 kts | 192° |
| 2026-04-26 17:18 | 57.63651 | 11.92056 | 2023 ft | 186 kts | 182° |
| 2026-04-26 17:19 | 57.61039 | 11.92366 | 2023 ft | 189 kts | 178° |
| 2026-04-26 17:19 | 57.59728 | 11.92560 | 2023 ft | 190 kts | 178° |
| 2026-04-26 17:19 | 57.58411 | 11.92754 | 2021 ft | 190 kts | 178° |
| 2026-04-26 17:20 | 57.57101 | 11.93081 | 2023 ft | 191 kts | 169° |
| 2026-04-26 17:20 | 57.56187 | 11.93537 | 2057 ft | 220 kts | 166° |
| 2026-04-26 17:20 | 57.54039 | 11.94709 | 2024 ft | 256 kts | 165° |
| 2026-04-26 17:20 | 57.52314 | 11.95653 | 2019 ft | 260 kts | 165° |
| 2026-04-26 17:21 | 57.50572 | 11.96607 | 2025 ft | 261 kts | 165° |
| 2026-04-26 17:21 | 57.48826 | 11.97563 | 2027 ft | 262 kts | 165° |
| 2026-04-26 17:21 | 57.47103 | 11.98674 | 2026 ft | 262 kts | 161° |
| 2026-04-26 17:21 | 57.45400 | 11.99893 | 2030 ft | 263 kts | 160° |
| 2026-04-26 17:22 | 57.43697 | 12.01119 | 2028 ft | 263 kts | 160° |
| 2026-04-26 17:22 | 57.41997 | 12.02353 | 2031 ft | 263 kts | 160° |
| 2026-04-26 17:22 | 57.40291 | 12.03588 | 2025 ft | 264 kts | 160° |
| 2026-04-26 17:22 | 57.38578 | 12.04812 | 2027 ft | 265 kts | 160° |
| 2026-04-26 17:23 | 57.36851 | 12.06037 | 2024 ft | 265 kts | 160° |
| 2026-04-26 17:23 | 57.35129 | 12.07268 | 2024 ft | 265 kts | 160° |
| 2026-04-26 17:23 | 57.33407 | 12.08502 | 2024 ft | 265 kts | 160° |
| 2026-04-26 17:23 | 57.31687 | 12.09723 | 2026 ft | 265 kts | 160° |
| 2026-04-26 17:24 | 57.29993 | 12.10920 | 2028 ft | 265 kts | 160° |
| 2026-04-26 17:24 | 57.28267 | 12.12129 | 2026 ft | 265 kts | 160° |
| 2026-04-26 17:24 | 57.26543 | 12.13334 | 2028 ft | 265 kts | 160° |
| 2026-04-26 17:24 | 57.24972 | 12.15032 | 2197 ft | 265 kts | 131° |
| 2026-04-26 17:25 | 57.23956 | 12.17947 | 2037 ft | 269 kts | 114° |
| 2026-04-26 17:25 | 57.23171 | 12.21048 | 2021 ft | 266 kts | 113° |
| 2026-04-26 17:25 | 57.22260 | 12.24014 | 2021 ft | 266 kts | 124° |
| 2026-04-26 17:25 | 57.21190 | 12.26802 | 2023 ft | 266 kts | 125° |
| 2026-04-26 17:26 | 57.20108 | 12.29567 | 2022 ft | 266 kts | 126° |
| 2026-04-26 17:26 | 57.18780 | 12.31915 | 2017 ft | 266 kts | 151° |
| 2026-04-26 17:26 | 57.17091 | 12.33270 | 2020 ft | 265 kts | 161° |
| 2026-04-26 17:26 | 57.15365 | 12.34454 | 2020 ft | 265 kts | 161° |
| 2026-04-26 17:27 | 57.13636 | 12.35621 | 2020 ft | 265 kts | 161° |
| 2026-04-26 17:27 | 57.11882 | 12.36635 | 2016 ft | 264 kts | 171° |
| 2026-04-26 17:27 | 57.10066 | 12.37108 | 2019 ft | 263 kts | 175° |
| 2026-04-26 17:27 | 57.08247 | 12.37498 | 2021 ft | 263 kts | 175° |
| 2026-04-26 17:28 | 57.06432 | 12.37881 | 2021 ft | 263 kts | 175° |
| 2026-04-26 17:28 | 57.04616 | 12.38260 | 2020 ft | 263 kts | 175° |
| 2026-04-26 17:28 | 57.02806 | 12.38715 | 2014 ft | 262 kts | 168° |
| 2026-04-26 17:28 | 57.01072 | 12.39520 | 2001 ft | 250 kts | 165° |
| 2026-04-26 17:29 | 56.99470 | 12.40441 | 2005 ft | 233 kts | 162° |
| 2026-04-26 17:29 | 56.98469 | 12.41047 | 2004 ft | 225 kts | 162° |
| 2026-04-26 17:29 | 56.96583 | 12.42592 | 2006 ft | 222 kts | 149° |
| 2026-04-26 17:29 | 56.95340 | 12.44209 | 2029 ft | 224 kts | 143° |
| 2026-04-26 17:30 | 56.94065 | 12.45861 | 2033 ft | 225 kts | 145° |
| 2026-04-26 17:30 | 56.92776 | 12.47498 | 2033 ft | 226 kts | 145° |
| 2026-04-26 17:30 | 56.91485 | 12.49137 | 2034 ft | 226 kts | 145° |
| 2026-04-26 17:30 | 56.90195 | 12.50778 | 2034 ft | 225 kts | 145° |
| 2026-04-26 17:31 | 56.88910 | 12.52413 | 2033 ft | 225 kts | 145° |
| 2026-04-26 17:31 | 56.87623 | 12.54048 | 2033 ft | 225 kts | 145° |
| 2026-04-26 17:31 | 56.86335 | 12.55681 | 2034 ft | 225 kts | 145° |
| 2026-04-26 17:31 | 56.85048 | 12.57312 | 2014 ft | 226 kts | 145° |
| 2026-04-26 17:32 | 56.83762 | 12.58939 | 1884 ft | 224 kts | 145° |
| 2026-04-26 17:32 | 56.82482 | 12.60559 | 1751 ft | 223 kts | 146° |
| 2026-04-26 17:32 | 56.81108 | 12.61832 | 1632 ft | 221 kts | 162° |
| 2026-04-26 17:32 | 56.79648 | 12.62697 | 1535 ft | 220 kts | 164° |
| 2026-04-26 17:33 | 56.78176 | 12.63465 | 1536 ft | 220 kts | 168° |
| 2026-04-26 17:33 | 56.76680 | 12.64046 | 1539 ft | 220 kts | 170° |
| 2026-04-26 17:33 | 56.75184 | 12.64591 | 1539 ft | 219 kts | 171° |
| 2026-04-26 17:34 | 56.72507 | 12.66791 | 1527 ft | 209 kts | 127° |
| 2026-04-26 17:34 | 56.71799 | 12.68958 | 1514 ft | 192 kts | 110° |
| 2026-04-26 17:34 | 56.71610 | 12.71201 | 1458 ft | 173 kts | 83° |
| 2026-04-26 17:34 | 56.72025 | 12.73076 | 1422 ft | 146 kts | 46° |
| 2026-04-26 17:35 | 56.72751 | 12.74102 | 1426 ft | 127 kts | 34° |
| 2026-04-26 17:35 | 56.73345 | 12.75219 | 1390 ft | 123 kts | 52° |
| 2026-04-26 17:35 | 56.73457 | 12.76768 | 1406 ft | 126 kts | 93° |
| 2026-04-26 17:35 | 56.73343 | 12.78347 | 1357 ft | 124 kts | 93° |
| 2026-04-26 17:36 | 56.73199 | 12.79896 | 1227 ft | 124 kts | 98° |
| 2026-04-26 17:36 | 56.72856 | 12.81342 | 1046 ft | 125 kts | 118° |
| 2026-04-26 17:36 | 56.72233 | 12.82430 | 654 ft | 124 kts | 159° |
| 2026-04-26 17:36 | 56.71418 | 12.82542 | 415 ft | 116 kts | 191° |
| 2026-04-26 17:37 | 56.70629 | 12.82335 | 221 ft | 116 kts | 191° |
| 2026-04-26 17:37 | 56.69845 | 12.82181 | 75 ft | 106 kts | 189° |
| 2026-04-26 17:37 | 56.69092 | 12.82003 | 82 ft | 138 kts | 189° |
| 2026-04-26 17:38 | 56.66956 | 12.81781 | 1097 ft | 176 kts | 181° |
| 2026-04-26 17:38 | 56.65717 | 12.82086 | 1279 ft | 184 kts | 166° |
| 2026-04-26 17:38 | 56.64501 | 12.82844 | 1447 ft | 187 kts | 155° |
| 2026-04-26 17:38 | 56.63437 | 12.84211 | 1522 ft | 188 kts | 140° |
| 2026-04-26 17:39 | 56.62503 | 12.85856 | 1528 ft | 187 kts | 132° |
| 2026-04-26 17:39 | 56.61648 | 12.87662 | 1536 ft | 191 kts | 129° |
| 2026-04-26 17:39 | 56.60787 | 12.89522 | 1540 ft | 193 kts | 129° |
| 2026-04-26 17:39 | 56.59938 | 12.91408 | 1539 ft | 193 kts | 129° |
| 2026-04-26 17:40 | 56.59094 | 12.93304 | 1540 ft | 194 kts | 129° |
| 2026-04-26 17:40 | 56.58505 | 12.94518 | 1534 ft | 194 kts | 134° |
| 2026-04-26 17:40 | 56.57030 | 12.96282 | 1538 ft | 193 kts | 159° |
| 2026-04-26 17:40 | 56.55755 | 12.96982 | 1540 ft | 191 kts | 172° |
| 2026-04-26 17:41 | 56.54442 | 12.97269 | 1541 ft | 190 kts | 182° |
| 2026-04-26 17:41 | 56.53125 | 12.97247 | 1543 ft | 189 kts | 185° |
| 2026-04-26 17:41 | 56.51809 | 12.97171 | 1537 ft | 189 kts | 185° |
| 2026-04-26 17:41 | 56.50496 | 12.97081 | 1538 ft | 189 kts | 185° |
| 2026-04-26 17:42 | 56.49185 | 12.96979 | 1539 ft | 189 kts | 185° |
| 2026-04-26 17:42 | 56.47875 | 12.96876 | 1540 ft | 188 kts | 186° |
| 2026-04-26 17:42 | 56.46567 | 12.96773 | 1538 ft | 188 kts | 185° |
| 2026-04-26 17:42 | 56.45257 | 12.96664 | 1539 ft | 189 kts | 185° |
| 2026-04-26 17:43 | 56.43948 | 12.96528 | 1536 ft | 188 kts | 190° |
| 2026-04-26 17:43 | 56.42665 | 12.96144 | 1530 ft | 186 kts | 197° |
| 2026-04-26 17:43 | 56.41429 | 12.95497 | 1541 ft | 185 kts | 201° |
| 2026-04-26 17:43 | 56.40209 | 12.94784 | 1539 ft | 184 kts | 201° |
| 2026-04-26 17:44 | 56.38990 | 12.94053 | 1541 ft | 184 kts | 201° |
| 2026-04-26 17:44 | 56.37732 | 12.93600 | 1541 ft | 186 kts | 185° |
| 2026-04-26 17:44 | 56.36433 | 12.93594 | 1531 ft | 187 kts | 181° |
| 2026-04-26 17:44 | 56.35128 | 12.93651 | 1536 ft | 188 kts | 181° |
| 2026-04-26 17:45 | 56.33821 | 12.93719 | 1537 ft | 188 kts | 180° |
| 2026-04-26 17:45 | 56.32530 | 12.94062 | 1533 ft | 189 kts | 169° |
| 2026-04-26 17:45 | 56.31272 | 12.94567 | 1534 ft | 178 kts | 169° |
| 2026-04-26 17:45 | 56.30093 | 12.95086 | 1586 ft | 170 kts | 168° |
| 2026-04-26 17:46 | 56.28916 | 12.95440 | 1494 ft | 169 kts | 177° |
| 2026-04-26 17:46 | 56.27803 | 12.95434 | 1419 ft | 146 kts | 191° |
| 2026-04-26 17:46 | 56.26929 | 12.94872 | 1335 ft | 125 kts | 218° |
| 2026-04-26 17:46 | 56.26406 | 12.93740 | 990 ft | 114 kts | 249° |
| 2026-04-26 17:47 | 56.26269 | 12.92405 | 777 ft | 106 kts | 268° |
| 2026-04-26 17:47 | 56.26256 | 12.91561 | 735 ft | 106 kts | 272° |
| 2026-04-26 17:47 | 56.26589 | 12.89923 | 561 ft | 109 kts | 308° |
| 2026-04-26 17:47 | 56.27104 | 12.88965 | 493 ft | 107 kts | 317° |
| 2026-04-26 17:48 | 56.27655 | 12.88078 | 336 ft | 105 kts | 316° |
| 2026-04-26 17:48 | 56.28179 | 12.87162 | 190 ft | 105 kts | 315° |
| 2026-04-26 17:48 | 56.28704 | 12.86272 | 69 ft | 97 kts | 316° |
| 2026-04-26 17:48 | 56.29184 | 12.85453 | 63 ft | 119 kts | 315° |
| 2026-04-26 17:49 | 56.29880 | 12.84216 | 692 ft | 156 kts | 314° |
| 2026-04-26 17:49 | 56.30678 | 12.82696 | 1292 ft | 186 kts | 309° |
| 2026-04-26 17:49 | 56.31263 | 12.80530 | 1429 ft | 189 kts | 281° |
| 2026-04-26 17:49 | 56.31149 | 12.78259 | 1477 ft | 186 kts | 250° |
| 2026-04-26 17:50 | 56.30391 | 12.76348 | 1488 ft | 191 kts | 228° |
| 2026-04-26 17:50 | 56.29351 | 12.74876 | 1475 ft | 194 kts | 204° |
| 2026-04-26 17:50 | 56.28008 | 12.74564 | 1484 ft | 198 kts | 180° |
| 2026-04-26 17:50 | 56.26693 | 12.75246 | 1484 ft | 201 kts | 150° |
| 2026-04-26 17:51 | 56.25531 | 12.76651 | 1483 ft | 201 kts | 144° |
| 2026-04-26 17:51 | 56.24417 | 12.78127 | 1486 ft | 194 kts | 143° |
| 2026-04-26 17:51 | 56.23347 | 12.79566 | 1483 ft | 191 kts | 143° |
| 2026-04-26 17:51 | 56.22288 | 12.81000 | 1486 ft | 191 kts | 143° |
| 2026-04-26 17:52 | 56.21228 | 12.82438 | 1487 ft | 191 kts | 143° |
| 2026-04-26 17:52 | 56.20172 | 12.83874 | 1488 ft | 191 kts | 143° |
| 2026-04-26 17:52 | 56.19115 | 12.85308 | 1485 ft | 191 kts | 143° |
| 2026-04-26 17:52 | 56.18058 | 12.86745 | 1487 ft | 190 kts | 143° |
| 2026-04-26 17:53 | 56.17001 | 12.88182 | 1482 ft | 190 kts | 143° |
| 2026-04-26 17:53 | 56.15950 | 12.89614 | 1483 ft | 189 kts | 143° |
| 2026-04-26 17:53 | 56.14905 | 12.91039 | 1482 ft | 188 kts | 143° |
| 2026-04-26 17:54 | 56.13066 | 12.94253 | 1492 ft | 189 kts | 112° |
| 2026-04-26 17:54 | 56.12606 | 12.96460 | 1491 ft | 189 kts | 114° |
| 2026-04-26 17:54 | 56.12023 | 12.98570 | 1493 ft | 189 kts | 117° |
| 2026-04-26 17:54 | 56.11346 | 13.00577 | 1483 ft | 188 kts | 130° |
| 2026-04-26 17:55 | 56.10449 | 13.02287 | 1489 ft | 188 kts | 136° |
| 2026-04-26 17:55 | 56.09517 | 13.03930 | 1490 ft | 188 kts | 136° |
| 2026-04-26 17:55 | 56.08583 | 13.05568 | 1492 ft | 188 kts | 136° |
| 2026-04-26 17:55 | 56.07688 | 13.07271 | 1488 ft | 188 kts | 133° |
| 2026-04-26 17:56 | 56.06811 | 13.09008 | 1488 ft | 188 kts | 133° |
| 2026-04-26 17:56 | 56.05409 | 13.12938 | 1482 ft | 188 kts | 116° |
| 2026-04-26 17:57 | 56.04411 | 13.17150 | 1478 ft | 176 kts | 109° |
| 2026-04-26 17:57 | 56.03983 | 13.19190 | 1474 ft | 174 kts | 109° |
| 2026-04-26 17:57 | 56.03552 | 13.21197 | 1470 ft | 171 kts | 110° |
| 2026-04-26 17:57 | 56.03138 | 13.23190 | 1436 ft | 171 kts | 108° |
| 2026-04-26 17:58 | 56.03977 | 13.27930 | 1336 ft | 126 kts | 15° |
| 2026-04-26 17:59 | 56.05567 | 13.27911 | 1090 ft | 110 kts | 340° |
| 2026-04-26 17:59 | 56.06246 | 13.27361 | 919 ft | 105 kts | 320° |
| 2026-04-26 17:59 | 56.06647 | 13.26285 | 811 ft | 106 kts | 293° |
| 2026-04-26 17:59 | 56.06925 | 13.25059 | 626 ft | 107 kts | 293° |
| 2026-04-26 18:00 | 56.07222 | 13.23849 | 527 ft | 106 kts | 296° |
| 2026-04-26 18:00 | 56.07529 | 13.22651 | 369 ft | 106 kts | 294° |
| 2026-04-26 18:00 | 56.07823 | 13.21455 | 228 ft | 106 kts | 296° |
| 2026-04-26 18:00 | 56.08113 | 13.20293 | 139 ft | 95 kts | 294° |
| 2026-04-26 18:01 | 56.08449 | 13.18961 | 285 ft | 146 kts | 295° |
| 2026-04-26 18:01 | 56.08905 | 13.17207 | 1051 ft | 163 kts | 295° |
| 2026-04-26 18:01 | 56.09492 | 13.15400 | 1298 ft | 175 kts | 314° |
| 2026-04-26 18:01 | 56.10578 | 13.14503 | 1382 ft | 178 kts | 356° |
| 2026-04-26 18:02 | 56.11749 | 13.15204 | 1448 ft | 184 kts | 37° |
| 2026-04-26 18:02 | 56.12049 | 13.15758 | 1437 ft | 185 kts | 52° |
| 2026-04-26 18:02 | 56.12394 | 13.19487 | 1433 ft | 187 kts | 89° |
| 2026-04-26 18:02 | 56.12405 | 13.22029 | 1507 ft | 233 kts | 86° |
| 2026-04-26 18:03 | 56.12468 | 13.25102 | 1449 ft | 255 kts | 85° |
| 2026-04-26 18:03 | 56.12556 | 13.28299 | 1385 ft | 257 kts | 85° |
| 2026-04-26 18:03 | 56.12619 | 13.31495 | 1456 ft | 258 kts | 86° |
| 2026-04-26 18:03 | 56.12788 | 13.34702 | 1506 ft | 258 kts | 80° |
| 2026-04-26 18:04 | 56.13025 | 13.37895 | 1510 ft | 258 kts | 80° |
| 2026-04-26 18:04 | 56.13273 | 13.41074 | 1511 ft | 258 kts | 79° |
| 2026-04-26 18:04 | 56.13520 | 13.44259 | 1511 ft | 259 kts | 79° |
| 2026-04-26 18:05 | 56.14009 | 13.50653 | 1514 ft | 259 kts | 79° |
| 2026-04-26 18:05 | 56.14250 | 13.53859 | 1512 ft | 259 kts | 79° |
| 2026-04-26 18:05 | 56.14492 | 13.57056 | 1510 ft | 259 kts | 79° |
| 2026-04-26 18:05 | 56.14732 | 13.60256 | 1511 ft | 259 kts | 80° |
| 2026-04-26 18:06 | 56.14972 | 13.63450 | 1510 ft | 258 kts | 79° |
| 2026-04-26 18:06 | 56.15212 | 13.66646 | 1510 ft | 258 kts | 79° |
| 2026-04-26 18:06 | 56.15448 | 13.69842 | 1511 ft | 259 kts | 80° |
| 2026-04-26 18:06 | 56.15377 | 13.73080 | 1511 ft | 263 kts | 101° |
| 2026-04-26 18:07 | 56.14882 | 13.76238 | 1512 ft | 263 kts | 105° |
| 2026-04-26 18:07 | 56.14351 | 13.79336 | 1512 ft | 264 kts | 105° |
| 2026-04-26 18:07 | 56.13807 | 13.82475 | 1510 ft | 264 kts | 105° |
| 2026-04-26 18:07 | 56.13622 | 13.83539 | 1508 ft | 264 kts | 105° |
| 2026-04-26 18:08 | 56.12712 | 13.88772 | 1508 ft | 266 kts | 105° |
| 2026-04-26 18:08 | 56.12077 | 13.91882 | 1501 ft | 264 kts | 118° |
| 2026-04-26 18:08 | 56.10967 | 13.94345 | 1501 ft | 246 kts | 143° |
| 2026-04-26 18:08 | 56.09492 | 13.95425 | 1502 ft | 217 kts | 179° |
| 2026-04-26 18:09 | 56.08074 | 13.95292 | 1511 ft | 196 kts | 192° |
| 2026-04-26 18:09 | 56.06767 | 13.94996 | 1506 ft | 182 kts | 193° |
| 2026-04-26 18:09 | 56.05544 | 13.94720 | 1506 ft | 174 kts | 193° |
| 2026-04-26 18:09 | 56.04357 | 13.94449 | 1499 ft | 171 kts | 192° |
| 2026-04-26 18:10 | 56.03179 | 13.94171 | 1508 ft | 171 kts | 193° |
| 2026-04-26 18:10 | 56.02002 | 13.93896 | 1513 ft | 170 kts | 192° |
| 2026-04-26 18:10 | 56.00834 | 13.93611 | 1507 ft | 169 kts | 193° |
| 2026-04-26 18:10 | 56.00059 | 13.93433 | 1517 ft | 169 kts | 193° |
| 2026-04-26 18:11 | 55.98898 | 13.93163 | 1533 ft | 168 kts | 192° |
| 2026-04-26 18:11 | 55.97738 | 13.92882 | 1510 ft | 169 kts | 194° |
| 2026-04-26 18:11 | 55.96573 | 13.92627 | 1503 ft | 169 kts | 192° |
| 2026-04-26 18:11 | 55.95404 | 13.92374 | 1508 ft | 169 kts | 192° |
| 2026-04-26 18:12 | 55.94240 | 13.92110 | 1517 ft | 168 kts | 193° |
| 2026-04-26 18:12 | 55.93082 | 13.91835 | 1515 ft | 168 kts | 193° |
| 2026-04-26 18:12 | 55.91924 | 13.91551 | 1506 ft | 168 kts | 193° |
| 2026-04-26 18:12 | 55.90766 | 13.91268 | 1511 ft | 168 kts | 193° |
| 2026-04-26 18:13 | 55.89609 | 13.90982 | 1503 ft | 168 kts | 193° |
| 2026-04-26 18:13 | 55.88448 | 13.90721 | 1498 ft | 170 kts | 189° |
| 2026-04-26 18:13 | 55.87268 | 13.90981 | 1520 ft | 174 kts | 166° |
| 2026-04-26 18:13 | 55.86535 | 13.91577 | 1533 ft | 176 kts | 149° |
| 2026-04-26 18:14 | 55.85405 | 13.93657 | 1534 ft | 169 kts | 126° |
| 2026-04-26 18:14 | 55.84966 | 13.95510 | 1563 ft | 160 kts | 101° |
| 2026-04-26 18:14 | 55.84773 | 13.97432 | 1610 ft | 156 kts | 95° |
| 2026-04-26 18:14 | 55.84664 | 13.99358 | 1535 ft | 155 kts | 88° |
| 2026-04-26 18:15 | 55.84806 | 14.01212 | 1462 ft | 148 kts | 66° |
| 2026-04-26 18:15 | 55.85215 | 14.02874 | 1430 ft | 146 kts | 60° |
| 2026-04-26 18:15 | 55.85665 | 14.04497 | 1416 ft | 146 kts | 58° |
| 2026-04-26 18:15 | 55.86172 | 14.06051 | 1343 ft | 146 kts | 50° |
| 2026-04-26 18:16 | 55.86824 | 14.07324 | 998 ft | 127 kts | 29° |
| 2026-04-26 18:16 | 55.88372 | 14.07729 | 631 ft | 111 kts | 360° |
| 2026-04-26 18:16 | 55.89127 | 14.07892 | 502 ft | 107 kts | 0° |
| 2026-04-26 18:17 | 55.89864 | 14.08053 | 387 ft | 107 kts | 2° |
| 2026-04-26 18:17 | 55.90599 | 14.08195 | 205 ft | 105 kts | 0° |
| 2026-04-26 18:17 | 55.91320 | 14.08354 | 82 ft | 104 kts | 2° |
| 2026-04-26 18:17 | 55.92002 | 14.08498 | 69 ft | 112 kts | 7° |
| 2026-04-26 18:18 | 55.93001 | 14.08689 | 611 ft | 156 kts | 3° |
| 2026-04-26 18:18 | 55.94117 | 14.08726 | 1361 ft | 170 kts | 343° |
| 2026-04-26 18:18 | 55.94968 | 14.07345 | 1515 ft | 172 kts | 292° |
| 2026-04-26 18:18 | 55.94813 | 14.05296 | 1506 ft | 177 kts | 241° |
| 2026-04-26 18:19 | 55.94052 | 14.03560 | 1702 ft | 178 kts | 237° |
| 2026-04-26 18:19 | 55.93284 | 14.01797 | 1706 ft | 195 kts | 237° |
| 2026-04-26 18:19 | 55.92349 | 13.99584 | 1606 ft | 240 kts | 237° |
| 2026-04-26 18:19 | 55.91341 | 13.97161 | 1543 ft | 245 kts | 237° |
| 2026-04-26 18:20 | 55.90319 | 13.94714 | 1534 ft | 246 kts | 237° |
| 2026-04-26 18:20 | 55.89302 | 13.92273 | 1656 ft | 246 kts | 237° |
| 2026-04-26 18:20 | 55.88277 | 13.89821 | 1727 ft | 246 kts | 237° |
| 2026-04-26 18:20 | 55.87597 | 13.88201 | 1744 ft | 247 kts | 237° |
| 2026-04-26 18:21 | 55.86230 | 13.84919 | 1740 ft | 246 kts | 237° |
| 2026-04-26 18:21 | 55.85210 | 13.82472 | 1739 ft | 247 kts | 237° |
| 2026-04-26 18:21 | 55.84052 | 13.80217 | 1742 ft | 247 kts | 221° |
| 2026-04-26 18:21 | 55.82685 | 13.78529 | 1741 ft | 231 kts | 217° |
| 2026-04-26 18:22 | 55.81337 | 13.77088 | 1739 ft | 227 kts | 207° |
| 2026-04-26 18:22 | 55.79774 | 13.76559 | 1739 ft | 230 kts | 187° |
| 2026-04-26 18:22 | 55.78174 | 13.76372 | 1747 ft | 230 kts | 186° |
| 2026-04-26 18:22 | 55.76577 | 13.76236 | 1739 ft | 228 kts | 186° |
| 2026-04-26 18:23 | 55.75015 | 13.76125 | 1751 ft | 223 kts | 186° |
| 2026-04-26 18:23 | 55.73473 | 13.76014 | 1754 ft | 221 kts | 185° |
| 2026-04-26 18:23 | 55.71937 | 13.75892 | 1742 ft | 220 kts | 186° |
| 2026-04-26 18:23 | 55.70428 | 13.75784 | 1749 ft | 220 kts | 186° |
| 2026-04-26 18:24 | 55.68896 | 13.75679 | 1751 ft | 220 kts | 185° |
| 2026-04-26 18:24 | 55.67368 | 13.75532 | 1739 ft | 220 kts | 190° |
| 2026-04-26 18:24 | 55.65870 | 13.75051 | 1742 ft | 218 kts | 197° |
| 2026-04-26 18:24 | 55.64440 | 13.74222 | 1747 ft | 215 kts | 205° |
| 2026-04-26 18:25 | 55.63049 | 13.73251 | 1743 ft | 215 kts | 207° |
| 2026-04-26 18:25 | 55.61676 | 13.72200 | 1741 ft | 215 kts | 207° |
| 2026-04-26 18:25 | 55.60319 | 13.71091 | 1743 ft | 215 kts | 211° |
| 2026-04-26 18:25 | 55.59002 | 13.69936 | 1749 ft | 205 kts | 210° |
| 2026-04-26 18:26 | 55.57754 | 13.68883 | 1668 ft | 194 kts | 210° |
| 2026-04-26 18:26 | 55.56599 | 13.67776 | 1573 ft | 184 kts | 224° |
| 2026-04-26 18:26 | 55.55731 | 13.66218 | 1520 ft | 172 kts | 233° |
| 2026-04-26 18:26 | 55.54973 | 13.64665 | 1515 ft | 164 kts | 234° |
| 2026-04-26 18:27 | 55.54241 | 13.63151 | 1504 ft | 161 kts | 233° |
| 2026-04-26 18:27 | 55.53536 | 13.61636 | 1509 ft | 159 kts | 234° |
| 2026-04-26 18:27 | 55.52841 | 13.60124 | 1515 ft | 158 kts | 234° |
| 2026-04-26 18:27 | 55.52153 | 13.58615 | 1526 ft | 157 kts | 234° |
| 2026-04-26 18:28 | 55.51467 | 13.57113 | 1516 ft | 157 kts | 234° |
| 2026-04-26 18:28 | 55.50783 | 13.55620 | 1511 ft | 156 kts | 234° |
| 2026-04-26 18:28 | 55.50103 | 13.54120 | 1511 ft | 156 kts | 234° |
| 2026-04-26 18:28 | 55.49441 | 13.52663 | 1503 ft | 145 kts | 234° |
| 2026-04-26 18:29 | 55.48974 | 13.51168 | 1463 ft | 137 kts | 259° |
| 2026-04-26 18:29 | 55.49002 | 13.49542 | 1430 ft | 132 kts | 279° |
| 2026-04-26 18:29 | 55.48992 | 13.48025 | 1439 ft | 115 kts | 265° |
| 2026-04-26 18:29 | 55.48939 | 13.46663 | 1355 ft | 108 kts | 270° |
| 2026-04-26 18:30 | 55.48916 | 13.45359 | 1124 ft | 105 kts | 270° |
| 2026-04-26 18:30 | 55.48903 | 13.44064 | 1100 ft | 106 kts | 270° |
| 2026-04-26 18:30 | 55.48897 | 13.42740 | 1119 ft | 110 kts | 272° |
| 2026-04-26 18:30 | 55.49004 | 13.41417 | 1090 ft | 110 kts | 283° |
| 2026-04-26 18:31 | 55.49254 | 13.40151 | 1003 ft | 110 kts | 295° |
| 2026-04-26 18:31 | 55.49697 | 13.39055 | 815 ft | 111 kts | 314° |
| 2026-04-26 18:31 | 55.50345 | 13.38329 | 641 ft | 114 kts | 344° |
| 2026-04-26 18:31 | 55.51108 | 13.38129 | 526 ft | 110 kts | 355° |
| 2026-04-26 18:32 | 55.51865 | 13.37995 | 377 ft | 109 kts | 353° |
| 2026-04-26 18:32 | 55.52609 | 13.37831 | 243 ft | 102 kts | 354° |
| 2026-04-26 18:32 | 55.53197 | 13.37717 | 240 ft | 70 kts | 353° |
| 2026-04-26 18:32 | 55.53631 | 13.37626 | 238 ft | 63 kts | 353° |
| 2026-04-26 18:33 | 55.54067 | 13.37534 | 242 ft | 51 kts | 353° |
| 2026-04-26 18:33 | 55.54221 | 13.37457 | 239 ft | 14 kts | 288° |
| 2026-04-26 18:33 | 55.54211 | 13.37237 | 232 ft | 15 kts | 264° |
| 2026-04-26 18:33 | 55.54191 | 13.37083 | 233 ft | 11 kts | 242° |
| 2026-04-26 18:34 | 55.54174 | 13.36964 | 231 ft | 11 kts | 262° |
| 2026-04-26 18:34 | 55.54168 | 13.36864 | 231 ft | 6 kts | 264° |
| 2026-04-26 18:34 | 55.54166 | 13.36802 | 234 ft | 5 kts | 273° |
| 2026-04-26 18:34 | 55.54207 | 13.36774 | 231 ft | 7 kts | 356° |
| 2026-04-26 18:35 | 55.54233 | 13.36769 | 232 ft | 2 kts | 353° |
| 2026-04-26 18:35 | 55.54236 | 13.36768 | 232 ft | 0 kts | 353° |